Meteo Giornale » Osservazioni meteo Italia » Lecce

ore: 15:55 - Osservazioni Meteo Lecce
Lat. 40° 14' N Lon. 18° 9' E Alt. 48 metri s.l.m.

sereno Europe/Rome

25 °C

Sereno

Temp. 24 Ore

10 °C

27 °C

Ovest/Sud-Ovest

18.5 Km/h

Dew point 13 °C

Umidità 47 %

Visibilità  10 Km

Il sole sorge alle ore 05:52

Il sole tramonta alle ore 19:37

Data e Ora Cielo e Fenomeni T °C DP °C Um. % Pres. hPa Vis. km Vento km/h
Oggi h: 15:55 sereno Sereno 25 13 47 1016 10 O/SO 18.5
Oggi h: 14:55 sereno Sereno 26 12 41 1016 10 O/SO 18.5
Oggi h: 13:55 sereno Sereno 25 14 50 1017 10 O/SO 20.3
Oggi h: 12:55 sereno Sereno 27 11 36 1017 10 O 7.4
Oggi h: 11:55 sereno Sereno 26 11 39 1018 10 N 3.7
Oggi h: 10:55 sereno Sereno 25 12 44 1018 10 N 3.7
Oggi h: 08:55 sereno Sereno 25 19 69 1017 10 N 3.7
Oggi h: 07:55 sereno Sereno 15 13 87 1017 10 N 0
Oggi h: 06:55 sereno Sereno 11 10 93 1017 10 N 0
Oggi h: 05:55 sereno Sereno 10 9 93 1017 10 N 0
Oggi h: 03:55 sereno Sereno 11 10 93 1017 10 N 0
Oggi h: 02:55 sereno Sereno 13 11 87 1018 10 N 0
Oggi h: 01:55 sereno Sereno 12 12 100 1018 10 N 0
Oggi h: 00:55 sereno Sereno 13 12 93 1018 10 N 0
Ieri h: 23:55 sereno Sereno 13 12 93 1018 10 N 0
Ieri h: 22:55 sereno Sereno 14 12 87 1018 10 N 0
Ieri h: 21:55 sereno Sereno 15 13 87 1018 10 N 3.7
Ieri h: 20:55 sereno Sereno 17 14 82 1017 10 N 3.7
Ieri h: 19:55 sereno Sereno 19 14 72 1017 10 N 5.5
Ieri h: 18:55 sereno Sereno 21 14 64 1017 10 O/SO 9.3